Time;durP1;ratioP1;P1;durP2;ratioP2;P2;SDS_P1;SDS_P2;PMS_P1;PMS_P2;Temp;Humidity;BMP_temperature;BMP_pressure;BME280_temperature;BME280_humidity;BME280_pressure;Samples;Min_cycle;Max_cycle;Signal;HPM_P1;HPM_P2
2021/06/21 00:00:00;;;;;;;7.23;6.63;;;20.60;99.90;;;;;;5110481;28;20764;-71
2021/06/21 00:02:26;;;;;;;8.03;7.33;;;20.70;99.90;;;;;;5110405;28;20428;-71
2021/06/21 00:04:53;;;;;;;10.63;7.87;;;20.70;99.90;;;;;;5111412;28;20274;-71
2021/06/21 00:07:19;;;;;;;8.30;7.67;;;20.70;99.90;;;;;;5110490;28;20414;-71
2021/06/21 00:09:45;;;;;;;8.40;7.80;;;20.60;99.90;;;;;;5100473;28;20422;-71
2021/06/21 00:12:13;;;;;;;7.50;6.90;;;20.60;99.90;;;;;;5097144;28;20173;-71
2021/06/21 00:14:40;;;;;;;7.43;6.63;;;20.70;99.90;;;;;;5097264;28;20165;-71
2021/06/21 00:17:06;;;;;;;7.10;6.40;;;20.80;99.90;;;;;;5096933;28;20443;-71
2021/06/21 00:19:32;;;;;;;8.13;7.10;;;21.00;99.90;;;;;;5095900;28;20429;-71
2021/06/21 00:21:58;;;;;;;8.87;8.17;;;21.00;99.90;;;;;;5096604;28;20482;-71
2021/06/21 00:24:24;;;;;;;9.07;8.27;;;21.10;99.90;;;;;;5095997;28;20162;-71
2021/06/21 00:26:50;;;;;;;7.30;6.60;;;21.20;99.90;;;;;;5097302;28;20438;-71
2021/06/21 00:29:16;;;;;;;7.90;7.30;;;21.20;99.90;;;;;;5095994;28;20506;-72
2021/06/21 00:31:42;;;;;;;6.50;6.00;;;21.20;99.90;;;;;;5096003;28;20481;-72
2021/06/21 00:34:07;;;;;;;7.63;6.90;;;21.20;99.90;;;;;;5096030;28;20180;-72
2021/06/21 00:36:33;;;;;;;9.32;8.43;;;21.30;99.90;;;;;;5096736;28;20413;-71
2021/06/21 00:38:59;;;;;;;8.07;7.37;;;21.30;99.90;;;;;;5095921;28;20707;-70
2021/06/21 00:41:25;;;;;;;8.03;7.43;;;21.30;99.90;;;;;;5096319;28;20198;-71
2021/06/21 00:43:50;;;;;;;6.70;6.20;;;21.40;99.90;;;;;;5095666;28;20219;-71
2021/06/21 00:46:16;;;;;;;8.77;8.07;;;21.50;99.90;;;;;;5096867;28;20212;-71
2021/06/21 00:48:41;;;;;;;9.17;8.37;;;21.50;99.90;;;;;;5095175;28;20177;-71
2021/06/21 00:51:08;;;;;;;7.70;7.10;;;21.50;99.90;;;;;;5095694;28;20538;-72
2021/06/21 00:53:34;;;;;;;9.30;8.60;;;21.60;99.90;;;;;;5095649;28;20177;-71
2021/06/21 00:56:00;;;;;;;7.63;7.03;;;21.60;99.90;;;;;;5095189;28;20423;-72
2021/06/21 00:58:27;;;;;;;8.67;7.97;;;21.60;99.90;;;;;;5096796;28;20555;-71
2021/06/21 01:00:53;;;;;;;10.33;9.53;;;21.50;99.90;;;;;;5095649;28;20708;-72
2021/06/21 01:03:19;;;;;;;9.27;8.47;;;21.60;99.90;;;;;;5095494;28;20403;-71
2021/06/21 01:05:45;;;;;;;8.97;8.27;;;21.60;99.90;;;;;;5094938;28;20446;-71
2021/06/21 01:08:10;;;;;;;9.27;8.40;;;21.40;99.90;;;;;;5096845;28;20201;-71
2021/06/21 01:10:38;;;;;;;8.83;8.13;;;21.40;99.90;;;;;;5095503;28;20180;-72
2021/06/21 01:13:27;;;;;;;10.40;9.50;;;21.50;99.90;;;;;;5096537;28;20181;-71
2021/06/21 01:16:17;;;;;;;9.67;8.87;;;21.50;99.90;;;;;;5095563;28;20501;-72
2021/06/21 01:19:17;;;;;;;12.00;11.00;;;21.60;99.90;;;;;;5096470;28;20959;-71
2021/06/21 01:22:00;;;;;;;10.07;9.17;;;21.50;99.90;;;;;;5080132;28;20407;-72
2021/06/21 01:25:03;;;;;;;14.17;10.57;;;21.50;99.90;;;;;;5095180;28;20394;-72
2021/06/21 01:27:50;;;;;;;13.27;12.17;;;21.40;99.90;;;;;;5095108;28;20398;-71
2021/06/21 01:30:20;;;;;;;11.43;10.43;;;21.30;99.90;;;;;;5104862;28;20429;-72
2021/06/21 01:33:12;;;;;;;11.60;10.60;;;21.20;99.90;;;;;;5115456;28;20401;-72
2021/06/21 01:35:41;;;;;;;11.97;10.90;;;21.30;99.90;;;;;;5111685;28;20972;-72
2021/06/21 01:38:31;;;;;;;11.73;10.73;;;21.30;99.90;;;;;;5115307;28;20469;-72
2021/06/21 01:41:01;;;;;;;12.07;11.00;;;21.40;99.90;;;;;;5114043;28;20806;-72
2021/06/21 01:43:30;;;;;;;12.70;11.60;;;21.40;99.90;;;;;;5115452;28;20411;-71
2021/06/21 01:45:59;;;;;;;10.70;9.80;;;21.40;99.90;;;;;;5115607;28;20429;-72
2021/06/21 01:48:27;;;;;;;14.87;13.53;;;21.40;99.90;;;;;;5114660;28;20478;-71
2021/06/21 01:50:56;;;;;;;15.50;14.10;;;21.30;99.90;;;;;;5114318;28;20815;-71
2021/06/21 01:53:24;;;;;;;13.97;12.57;;;21.30;99.90;;;;;;5114971;28;20429;-72
2021/06/21 01:55:57;;;;;;;16.63;15.13;;;21.20;99.90;;;;;;5118758;28;20430;-70
2021/06/21 01:58:25;;;;;;;16.40;15.00;;;21.20;99.90;;;;;;5118547;28;20469;-71
2021/06/21 02:00:51;;;;;;;16.20;14.90;;;21.10;99.90;;;;;;5114149;28;20463;-71
2021/06/21 02:03:18;;;;;;;14.00;12.70;;;21.20;99.90;;;;;;5112994;28;20195;-71
2021/06/21 02:05:45;;;;;;;13.43;12.13;;;21.20;99.90;;;;;;5115013;28;20229;-71
2021/06/21 02:08:13;;;;;;;13.93;12.60;;;21.30;99.90;;;;;;5114936;28;20421;-71
2021/06/21 02:10:39;;;;;;;12.70;11.60;;;21.30;99.90;;;;;;5114560;28;20406;-71
2021/06/21 02:13:07;;;;;;;16.60;15.20;;;21.40;99.90;;;;;;5112734;28;20960;-71
2021/06/21 02:15:33;;;;;;;16.47;14.97;;;21.50;99.90;;;;;;5115194;28;20436;-70
2021/06/21 02:18:00;;;;;;;17.47;15.97;;;21.60;99.90;;;;;;5114305;28;20510;-71
2021/06/21 02:20:26;;;;;;;17.70;15.93;;;21.50;99.90;;;;;;5114962;28;20401;-71
2021/06/21 02:22:52;;;;;;;15.63;14.23;;;21.40;99.90;;;;;;5110311;28;20411;-71
2021/06/21 02:25:17;;;;;;;17.43;15.93;;;21.30;99.90;;;;;;5094641;28;20960;-71
2021/06/21 02:27:43;;;;;;;19.20;17.60;;;21.30;99.90;;;;;;5094876;28;20646;-71
2021/06/21 02:30:13;;;;;;;19.17;17.37;;;21.30;99.90;;;;;;5099754;28;20466;-71
2021/06/21 02:32:42;;;;;;;17.63;15.83;;;21.20;99.90;;;;;;5108158;28;20450;-71
2021/06/21 02:35:09;;;;;;;16.93;15.30;;;21.20;99.90;;;;;;5112550;28;20528;-71
2021/06/21 02:37:36;;;;;;;16.57;15.17;;;21.30;99.90;;;;;;5113431;28;20496;-71
2021/06/21 02:40:05;;;;;;;18.50;16.97;;;21.40;99.90;;;;;;5113732;28;20926;-71
2021/06/21 02:42:30;;;;;;;20.30;18.60;;;21.50;99.90;;;;;;5112358;28;20482;-71
2021/06/21 02:44:56;;;;;;;20.13;18.37;;;21.60;99.90;;;;;;5105414;28;20529;-71
2021/06/21 02:47:22;;;;;;;20.70;18.70;;;21.40;99.90;;;;;;5098591;28;20180;-70
2021/06/21 02:49:48;;;;;;;19.23;17.63;;;21.20;99.90;;;;;;5101864;28;20203;-71
2021/06/21 02:52:31;;;;;;;19.27;17.57;;;21.00;99.90;;;;;;5101538;28;20169;-71
2021/06/21 02:55:14;;;;;;;15.83;14.43;;;20.90;99.90;;;;;;5098076;28;20434;-71
2021/06/21 02:57:47;;;;;;;15.80;14.50;;;20.90;99.90;;;;;;5095819;28;20463;-71
2021/06/21 03:00:13;;;;;;;17.57;16.03;;;21.00;99.90;;;;;;5105303;28;20410;-70
2021/06/21 03:02:39;;;;;;;15.80;14.27;;;21.00;99.90;;;;;;5111045;28;20421;-71
2021/06/21 03:05:06;;;;;;;15.93;14.60;;;21.00;99.90;;;;;;5103251;28;20438;-71
2021/06/21 03:07:33;;;;;;;15.00;13.70;;;21.10;99.90;;;;;;5093404;28;20411;-71
2021/06/21 03:10:01;;;;;;;15.80;14.50;;;21.10;99.90;;;;;;5093388;28;20421;-71
2021/06/21 03:12:29;;;;;;;19.63;18.03;;;21.10;99.90;;;;;;5093026;28;20411;-71
2021/06/21 03:14:55;;;;;;;15.40;13.80;;;21.00;99.90;;;;;;5094284;28;20541;-71
2021/06/21 03:17:22;;;;;;;17.80;16.30;;;21.10;99.90;;;;;;5093406;28;20453;-71
2021/06/21 03:19:50;;;;;;;16.20;14.80;;;21.10;99.90;;;;;;5092919;28;20772;-71
2021/06/21 03:22:19;;;;;;;15.20;13.90;;;21.20;99.90;;;;;;5093237;28;20431;-71
2021/06/21 03:24:49;;;;;;;14.13;12.93;;;21.20;99.90;;;;;;5098524;28;20410;-71
2021/06/21 03:27:15;;;;;;;13.90;12.80;;;21.30;99.90;;;;;;5114167;28;20485;-72
2021/06/21 03:29:40;;;;;;;14.60;13.40;;;21.40;99.90;;;;;;5113594;28;20600;-71
2021/06/21 03:32:25;;;;;;;13.10;11.90;;;21.50;99.90;;;;;;5113672;28;20172;-71
2021/06/21 03:34:52;;;;;;;11.90;10.80;;;21.50;99.90;;;;;;5110903;28;20690;-71
2021/06/21 03:37:17;;;;;;;13.77;12.63;;;21.60;99.90;;;;;;5105080;28;20481;-71
2021/06/21 03:39:43;;;;;;;13.40;12.23;;;21.50;99.90;;;;;;5109475;28;20422;-71
2021/06/21 03:42:08;;;;;;;13.17;12.00;;;21.60;99.90;;;;;;5104271;28;20200;-71
2021/06/21 03:44:34;;;;;;;12.63;11.47;;;21.50;99.90;;;;;;5114779;28;20255;-71
2021/06/21 03:46:59;;;;;;;12.30;11.20;;;21.50;99.90;;;;;;5102231;28;20180;-71
2021/06/21 03:49:25;;;;;;;10.67;9.77;;;21.50;99.90;;;;;;5096632;28;20192;-71
2021/06/21 03:51:50;;;;;;;11.80;10.90;;;21.60;99.90;;;;;;5102752;28;20185;-73
2021/06/21 03:54:16;;;;;;;10.30;9.50;;;21.60;99.90;;;;;;5097186;28;20501;-71
2021/06/21 03:56:42;;;;;;;11.30;10.20;;;21.70;99.90;;;;;;5097995;28;20533;-72
2021/06/21 03:59:07;;;;;;;12.30;11.10;;;21.70;99.90;;;;;;5102022;28;20294;-71
2021/06/21 04:01:33;;;;;;;9.43;8.63;;;21.70;99.90;;;;;;5107950;28;20653;-71
2021/06/21 04:03:59;;;;;;;10.33;9.43;;;21.80;99.90;;;;;;5102041;28;20325;-71
2021/06/21 04:06:25;;;;;;;11.37;10.47;;;21.80;99.90;;;;;;5096912;28;20260;-71
2021/06/21 04:08:50;;;;;;;10.17;9.23;;;21.80;99.90;;;;;;5097799;28;20451;-71
2021/06/21 04:11:16;;;;;;;10.70;9.80;;;21.90;99.90;;;;;;5100467;28;20890;-71
2021/06/21 04:13:42;;;;;;;10.97;9.97;;;21.90;99.90;;;;;;5102916;28;20196;-71
2021/06/21 04:16:07;;;;;;;8.40;7.70;;;21.90;99.90;;;;;;5103955;28;20234;-71
2021/06/21 04:18:33;;;;;;;8.47;7.60;;;21.90;99.90;;;;;;5114129;28;20204;-71
2021/06/21 04:20:58;;;;;;;6.67;5.67;;;22.00;99.90;;;;;;5116676;28;20168;-71
2021/06/21 04:23:24;;;;;;;5.60;5.10;;;21.90;99.90;;;;;;5116592;27;20288;-71
2021/06/21 04:25:49;;;;;;;5.47;4.73;;;22.00;99.90;;;;;;5116733;28;20192;-71
2021/06/21 04:28:15;;;;;;;6.90;5.57;;;22.00;99.90;;;;;;5112434;28;20167;-71
2021/06/21 04:30:41;;;;;;;8.27;5.03;;;22.10;99.90;;;;;;5097180;28;20160;-71
2021/06/21 04:33:06;;;;;;;7.90;4.40;;;22.10;99.90;;;;;;5096312;28;20184;-71
2021/06/21 04:35:33;;;;;;;8.33;4.27;;;22.20;99.90;;;;;;5103984;28;20295;-72
2021/06/21 04:37:58;;;;;;;8.60;4.30;;;22.20;99.90;;;;;;5116834;28;20227;-72
2021/06/21 04:40:30;;;;;;;8.17;4.03;;;22.20;99.90;;;;;;5101921;28;20449;-72
2021/06/21 04:42:55;;;;;;;5.73;3.50;;;22.20;99.90;;;;;;5096589;28;20181;-72
2021/06/21 04:45:21;;;;;;;6.00;4.00;;;22.10;99.90;;;;;;5096931;28;20501;-72
2021/06/21 04:47:47;;;;;;;7.53;4.20;;;22.20;99.90;;;;;;5102270;28;20437;-71
2021/06/21 04:50:17;;;;;;;6.53;3.60;;;22.20;99.90;;;;;;5114693;28;20176;-72
2021/06/21 04:52:44;;;;;;;6.77;3.30;;;22.20;99.90;;;;;;5115314;28;20441;-71
2021/06/21 04:55:12;;;;;;;4.40;3.30;;;22.20;99.90;;;;;;5117689;28;20430;-71
2021/06/21 04:57:38;;;;;;;12.97;3.93;;;22.20;99.90;;;;;;5114863;28;20464;-74
2021/06/21 05:00:09;;;;;;;5.50;3.13;;;22.20;99.90;;;;;;5116250;28;20410;-74
2021/06/21 05:02:35;;;;;;;7.17;3.87;;;22.20;99.90;;;;;;5115377;28;20190;-75
2021/06/21 05:05:01;;;;;;;5.33;3.43;;;22.20;99.90;;;;;;5117161;28;20425;-74
2021/06/21 05:07:26;;;;;;;5.70;3.27;;;22.20;99.90;;;;;;5117099;28;20529;-74
2021/06/21 05:09:52;;;;;;;3.93;3.00;;;22.20;99.90;;;;;;5126367;28;20183;-73
2021/06/21 05:12:18;;;;;;;6.33;3.27;;;22.10;99.90;;;;;;5115231;28;20176;-74
2021/06/21 05:14:44;;;;;;;8.43;3.27;;;22.10;99.90;;;;;;5101233;28;20176;-73
2021/06/21 05:17:11;;;;;;;4.83;3.40;;;22.10;99.90;;;;;;5099294;28;20199;-74
2021/06/21 05:19:37;;;;;;;4.87;3.00;;;22.10;99.90;;;;;;5116431;28;20783;-74
2021/06/21 05:22:04;;;;;;;5.20;3.60;;;22.10;99.90;;;;;;5111727;28;20434;-74
2021/06/21 05:24:31;;;;;;;4.00;2.73;;;22.00;99.90;;;;;;5101539;28;20407;-74
2021/06/21 05:26:56;;;;;;;4.80;2.93;;;22.00;99.90;;;;;;5101695;28;20414;-73
2021/06/21 05:29:22;;;;;;;4.50;2.63;;;22.10;99.90;;;;;;5107131;28;20417;-73
2021/06/21 05:31:48;;;;;;;8.50;3.50;;;22.00;99.90;;;;;;5122413;28;20262;-73
2021/06/21 05:34:14;;;;;;;4.73;2.97;;;22.00;99.90;;;;;;5119894;28;20192;-74
2021/06/21 05:36:39;;;;;;;8.53;3.57;;;22.10;99.90;;;;;;5121096;28;20196;-74
2021/06/21 05:39:05;;;;;;;7.07;3.30;;;22.00;99.90;;;;;;5112481;28;20287;-74
2021/06/21 05:41:31;;;;;;;5.13;3.30;;;22.00;99.90;;;;;;5096653;28;20276;-73
2021/06/21 05:43:56;;;;;;;6.30;3.50;;;22.00;99.90;;;;;;5108480;28;20176;-73
2021/06/21 05:46:22;;;;;;;7.10;3.37;;;22.00;99.90;;;;;;5100176;28;20192;-73
2021/06/21 05:48:48;;;;;;;5.93;3.63;;;22.00;99.90;;;;;;5116186;28;20196;-74
2021/06/21 05:51:14;;;;;;;6.43;3.20;;;22.00;99.90;;;;;;5106422;28;20658;-74
2021/06/21 05:53:39;;;;;;;5.50;3.27;;;22.00;99.90;;;;;;5102730;28;20260;-74
2021/06/21 05:56:05;;;;;;;6.43;3.20;;;22.10;99.90;;;;;;5099523;28;20231;-73
2021/06/21 05:58:31;;;;;;;5.93;3.37;;;22.10;99.90;;;;;;5095845;28;20200;-74
2021/06/21 06:00:56;;;;;;;6.27;3.90;;;22.20;99.90;;;;;;5095645;28;20234;-74
2021/06/21 06:03:22;;;;;;;6.43;3.47;;;22.20;99.90;;;;;;5095345;28;20169;-74
2021/06/21 06:05:47;;;;;;;5.63;3.37;;;22.20;99.90;;;;;;5105245;28;20200;-75
2021/06/21 06:08:13;;;;;;;6.97;3.70;;;22.30;99.90;;;;;;5115558;28;20180;-74
2021/06/21 06:10:39;;;;;;;4.87;3.10;;;22.30;99.90;;;;;;5115211;27;20240;-74
2021/06/21 06:13:05;;;;;;;9.43;3.07;;;22.30;99.90;;;;;;5096933;28;20181;-74
2021/06/21 06:15:30;;;;;;;5.90;3.90;;;22.40;99.90;;;;;;5095194;28;20200;-74
2021/06/21 06:17:56;;;;;;;6.00;4.00;;;22.40;99.90;;;;;;5103599;28;20565;-74
2021/06/21 06:20:22;;;;;;;5.67;3.40;;;22.40;99.90;;;;;;5116504;28;20616;-75
2021/06/21 06:22:48;;;;;;;5.17;3.43;;;22.50;99.90;;;;;;5101539;28;20200;-74
2021/06/21 06:25:14;;;;;;;6.50;3.40;;;22.60;99.90;;;;;;5095006;28;20197;-73
2021/06/21 06:27:40;;;;;;;7.83;3.67;;;22.60;99.90;;;;;;5093986;28;20914;-73
2021/06/21 06:30:07;;;;;;;7.17;3.17;;;22.60;99.90;;;;;;5092895;28;20439;-73
2021/06/21 06:32:36;;;;;;;10.53;3.63;;;22.60;99.90;;;;;;5093801;28;20583;-74
2021/06/21 06:35:03;;;;;;;6.60;3.47;;;22.60;99.90;;;;;;5093509;28;20435;-75
2021/06/21 06:37:29;;;;;;;7.57;3.73;;;22.70;99.90;;;;;;5094116;28;20446;-74
2021/06/21 06:39:55;;;;;;;7.53;3.33;;;22.80;99.90;;;;;;5092806;28;20422;-74
2021/06/21 06:42:21;;;;;;;11.10;3.27;;;22.90;99.90;;;;;;5093789;28;20618;-74
2021/06/21 06:44:46;;;;;;;6.37;3.13;;;22.80;99.90;;;;;;5095197;28;20415;-75
2021/06/21 06:47:12;;;;;;;6.87;3.10;;;22.80;99.90;;;;;;5093976;28;20188;-72
2021/06/21 06:49:37;;;;;;;6.50;3.40;;;22.80;99.90;;;;;;5093944;28;20626;-72
2021/06/21 06:52:03;;;;;;;6.67;3.60;;;22.80;99.90;;;;;;5092034;28;20649;-72
2021/06/21 06:54:45;;;;;;;5.23;3.30;;;22.90;99.90;;;;;;5093427;28;20173;-72
2021/06/21 06:57:11;;;;;;;5.53;2.90;;;22.90;99.90;;;;;;5094030;28;20434;-72
2021/06/21 06:59:40;;;;;;;5.10;2.67;;;22.90;99.90;;;;;;5094568;28;20410;-72
2021/06/21 07:02:12;;;;;;;6.77;2.90;;;22.90;99.90;;;;;;5093619;28;20411;-73
2021/06/21 07:04:38;;;;;;;3.73;2.80;;;22.90;99.90;;;;;;5098770;28;20414;-72
2021/06/21 07:07:05;;;;;;;9.40;3.20;;;23.10;99.90;;;;;;5114550;28;20925;-73
2021/06/21 07:09:33;;;;;;;7.20;3.07;;;23.20;99.90;;;;;;5114194;28;20217;-71
2021/06/21 07:11:59;;;;;;;5.73;2.70;;;23.20;99.90;;;;;;5114118;28;20406;-72
2021/06/21 07:14:25;;;;;;;4.87;3.20;;;23.20;99.90;;;;;;5113820;28;20405;-71
2021/06/21 07:16:51;;;;;;;4.60;2.70;;;23.30;99.90;;;;;;5095185;28;20669;-71
2021/06/21 07:19:21;;;;;;;7.60;3.13;;;23.30;99.90;;;;;;5095324;28;20458;-72
2021/06/21 07:21:47;;;;;;;3.07;2.73;;;23.30;99.90;;;;;;5097845;28;20938;-71
2021/06/21 07:24:12;;;;;;;4.23;2.80;;;23.20;99.90;;;;;;5097540;28;20415;-71
2021/06/21 07:26:39;;;;;;;5.15;3.05;;;23.20;99.90;;;;;;5107077;28;20898;-71
2021/06/21 07:29:05;;;;;;;3.67;2.63;;;23.20;99.90;;;;;;5116528;28;20170;-71
2021/06/21 07:31:33;;;;;;;3.77;2.50;;;23.10;99.90;;;;;;5118468;28;20412;-72
2021/06/21 07:33:58;;;;;;;4.13;2.63;;;23.10;99.90;;;;;;5117844;28;20434;-72
2021/06/21 07:36:24;;;;;;;4.60;2.97;;;23.00;99.90;;;;;;5112855;28;20435;-71
2021/06/21 07:38:50;;;;;;;4.30;3.30;;;23.00;99.90;;;;;;5097168;28;20249;-72
2021/06/21 07:41:16;;;;;;;2.90;2.40;;;23.00;99.90;;;;;;5098720;28;20523;-71
2021/06/21 07:43:42;;;;;;;4.73;3.53;;;23.10;99.90;;;;;;5097966;28;20653;-72
2021/06/21 07:46:08;;;;;;;9.43;2.90;;;23.20;99.90;;;;;;5097227;28;20253;-71
2021/06/21 07:48:35;;;;;;;3.47;2.50;;;23.30;99.90;;;;;;5097180;28;20414;-71
2021/06/21 07:51:02;;;;;;;2.97;2.40;;;23.40;99.90;;;;;;5097172;28;20258;-72
2021/06/21 07:53:28;;;;;;;2.83;2.20;;;23.70;99.90;;;;;;5097564;28;20487;-71
2021/06/21 07:55:54;;;;;;;4.40;2.73;;;23.90;99.90;;;;;;5098044;28;20453;-71
2021/06/21 07:58:19;;;;;;;3.00;2.43;;;23.90;99.90;;;;;;5097155;28;20254;-71
2021/06/21 08:00:46;;;;;;;4.97;2.20;;;23.90;99.90;;;;;;5095615;28;20746;-72
2021/06/21 08:03:11;;;;;;;5.50;2.80;;;23.90;99.90;;;;;;5097097;28;20192;-71
2021/06/21 08:05:38;;;;;;;4.10;2.87;;;24.10;99.90;;;;;;5106691;28;20437;-73
2021/06/21 08:08:07;;;;;;;4.30;2.73;;;24.20;99.90;;;;;;5115061;28;20409;-71
2021/06/21 08:10:33;;;;;;;4.47;2.93;;;24.10;99.90;;;;;;5097311;28;20412;-72
2021/06/21 08:12:59;;;;;;;4.40;2.73;;;24.00;99.90;;;;;;5096685;28;20410;-72
2021/06/21 08:15:24;;;;;;;4.77;2.60;;;24.00;99.90;;;;;;5097253;28;20431;-71
2021/06/21 08:17:50;;;;;;;4.60;2.73;;;24.00;99.90;;;;;;5095416;28;20497;-72
2021/06/21 08:20:16;;;;;;;2.93;2.63;;;24.00;99.90;;;;;;5109542;28;20168;-73
2021/06/21 08:22:41;;;;;;;2.60;2.37;;;23.90;99.90;;;;;;5117975;28;20149;-72
2021/06/21 08:25:08;;;;;;;5.83;2.90;;;23.70;99.90;;;;;;5122342;28;20195;-72
2021/06/21 08:27:33;;;;;;;3.80;2.70;;;23.50;99.90;;;;;;5124759;28;20176;-72
2021/06/21 08:29:59;;;;;;;5.73;2.63;;;23.40;99.90;;;;;;5112025;28;20487;-72
2021/06/21 08:32:26;;;;;;;3.43;2.50;;;23.30;99.90;;;;;;5095803;28;20220;-71
2021/06/21 08:34:51;;;;;;;4.33;3.23;;;23.30;99.90;;;;;;5096872;28;20272;-71
2021/06/21 08:37:18;;;;;;;6.53;2.53;;;23.20;99.90;;;;;;5095829;28;20867;-72
2021/06/21 08:39:44;;;;;;;4.63;4.10;;;23.30;99.90;;;;;;5096342;28;20253;-71
2021/06/21 08:42:10;;;;;;;4.77;3.30;;;23.40;99.90;;;;;;5099234;28;20509;-73
2021/06/21 08:44:36;;;;;;;5.87;3.13;;;23.40;99.90;;;;;;5097396;28;20245;-73
2021/06/21 08:47:04;;;;;;;4.27;3.17;;;23.30;99.90;;;;;;5095815;28;20407;-71
2021/06/21 08:49:33;;;;;;;4.40;3.03;;;23.10;99.90;;;;;;5099410;28;20407;-71
2021/06/21 08:51:59;;;;;;;3.30;3.00;;;22.90;99.90;;;;;;5106605;28;20403;-72
2021/06/21 08:54:25;;;;;;;3.97;3.60;;;22.90;99.90;;;;;;5117289;28;20414;-71
2021/06/21 08:56:54;;;;;;;3.80;3.33;;;22.90;99.90;;;;;;5114945;28;20438;-71
2021/06/21 08:59:20;;;;;;;7.15;5.30;;;22.90;99.90;;;;;;5109623;28;20637;-72
2021/06/21 09:01:46;;;;;;;9.87;7.37;;;23.10;99.90;;;;;;5098367;28;20411;-72
2021/06/21 09:04:12;;;;;;;10.13;9.17;;;23.10;99.90;;;;;;5097426;28;20169;-72
2021/06/21 09:06:40;;;;;;;13.47;11.10;;;23.00;99.90;;;;;;5115110;28;20867;-71
2021/06/21 09:09:07;;;;;;;12.60;11.47;;;23.20;99.90;;;;;;5118163;28;20252;-71
2021/06/21 09:11:44;;;;;;;14.07;12.93;;;23.50;99.90;;;;;;5116324;28;20434;-72
2021/06/21 09:14:25;;;;;;;13.87;12.67;;;23.60;99.90;;;;;;5097780;28;20418;-72
2021/06/21 09:16:52;;;;;;;19.27;17.43;;;23.70;99.90;;;;;;5096101;28;20567;-71
2021/06/21 09:19:18;;;;;;;20.70;16.70;;;23.50;99.90;;;;;;5095872;28;20965;-72
2021/06/21 09:21:44;;;;;;;18.70;17.00;;;23.40;99.90;;;;;;5096101;28;20452;-72
2021/06/21 09:24:38;;;;;;;28.53;25.57;;;23.40;99.90;;;;;;5095413;28;20254;-72
2021/06/21 09:27:04;;;;;;;23.40;21.17;;;23.30;99.90;;;;;;5095986;28;20920;-71
2021/06/21 09:29:38;;;;;;;29.77;26.20;;;23.50;99.90;;;;;;5107256;28;20429;-71
2021/06/21 09:32:05;;;;;;;34.33;28.30;;;23.30;99.90;;;;;;5115452;28;20284;-71
2021/06/21 09:34:31;;;;;;;30.17;27.00;;;23.10;99.90;;;;;;5114856;28;20402;-71
2021/06/21 09:37:09;;;;;;;38.70;32.60;;;22.80;99.90;;;;;;5115326;28;20406;-71
2021/06/21 09:39:42;;;;;;;36.47;30.97;;;22.60;99.90;;;;;;5113273;28;20930;-71
2021/06/21 09:42:26;;;;;;;29.40;26.30;;;22.30;99.90;;;;;;5110774;28;20862;-71
2021/06/21 09:44:58;;;;;;;31.77;26.17;;;22.20;99.90;;;;;;5115933;28;20852;-72
2021/06/21 09:47:37;;;;;;;33.30;27.90;;;22.10;99.90;;;;;;5114772;28;20421;-70
2021/06/21 09:50:20;;;;;;;33.70;28.50;;;21.90;99.90;;;;;;5113043;28;20801;-72
2021/06/21 09:52:52;;;;;;;30.00;25.60;;;21.70;99.90;;;;;;5094988;28;20469;-72
2021/06/21 09:55:25;;;;;;;31.13;27.23;;;21.40;99.90;;;;;;5094081;28;20496;-72
2021/06/21 09:58:01;;;;;;;32.80;26.77;;;21.30;99.90;;;;;;5094580;28;20966;-71
2021/06/21 10:00:27;;;;;;;28.53;23.37;;;21.10;99.90;;;;;;5095529;28;20411;-72
2021/06/21 10:03:05;;;;;;;31.57;23.73;;;21.00;99.90;;;;;;5094693;28;20410;-72
2021/06/21 10:05:31;;;;;;;33.17;25.30;;;20.80;99.90;;;;;;5102601;28;20779;-72
2021/06/21 10:07:57;;;;;;;31.40;24.80;;;20.70;99.90;;;;;;5114098;28;20418;-71
2021/06/21 10:10:23;;;;;;;25.40;22.53;;;20.70;99.90;;;;;;5114641;28;20191;-72
2021/06/21 10:12:49;;;;;;;23.77;21.23;;;20.50;99.90;;;;;;5095547;28;20418;-72
2021/06/21 10:15:16;;;;;;;25.60;19.67;;;20.50;99.90;;;;;;5094415;28;20197;-73
2021/06/21 10:17:42;;;;;;;22.73;18.43;;;20.40;99.90;;;;;;5093962;28;20447;-74
2021/06/21 10:20:10;;;;;;;18.77;16.70;;;20.30;99.90;;;;;;5094115;28;20403;-72
2021/06/21 10:22:36;;;;;;;16.93;14.07;;;20.60;99.90;;;;;;5095569;28;20196;-72
2021/06/21 10:25:05;;;;;;;18.53;14.40;;;20.80;99.90;;;;;;5092721;28;20423;-73
2021/06/21 10:27:30;;;;;;;14.40;12.97;;;20.90;99.90;;;;;;5093534;28;20476;-72
2021/06/21 10:29:57;;;;;;;13.40;12.00;;;20.70;99.90;;;;;;5094425;28;20721;-72
2021/06/21 10:32:25;;;;;;;11.50;10.30;;;20.80;99.90;;;;;;5095492;28;20176;-72
2021/06/21 10:34:51;;;;;;;13.17;10.70;;;20.80;99.90;;;;;;5114143;28;20978;-72
2021/06/21 10:37:21;;;;;;;11.53;10.27;;;20.80;99.90;;;;;;5114126;28;20402;-72
2021/06/21 10:39:58;;;;;;;13.90;9.87;;;20.80;99.90;;;;;;5114499;28;20922;-72
2021/06/21 10:42:25;;;;;;;11.63;8.27;;;20.80;99.90;;;;;;5114424;28;20396;-74
2021/06/21 10:44:54;;;;;;;8.27;7.20;;;20.60;99.90;;;;;;5112640;28;20491;-75
2021/06/21 10:47:43;;;;;;;8.03;6.90;;;20.50;99.90;;;;;;5115006;28;20402;-74
2021/06/21 10:50:23;;;;;;;6.93;6.10;;;19.60;99.90;;;;;;5112921;28;20398;-74
2021/06/21 10:52:50;;;;;;;6.27;5.30;;;19.50;99.90;;;;;;5093839;28;20738;-74
2021/06/21 10:55:21;;;;;;;5.27;4.77;;;19.60;99.90;;;;;;5094781;28;20510;-74
2021/06/21 10:58:07;;;;;;;6.43;5.50;;;19.70;99.90;;;;;;5092351;28;20851;-74
2021/06/21 11:00:36;;;;;;;5.50;4.87;;;19.90;99.90;;;;;;5095242;28;20391;-74
2021/06/21 11:03:23;;;;;;;5.80;4.47;;;20.00;99.90;;;;;;5112365;28;20438;-75
2021/06/21 11:05:49;;;;;;;4.87;3.97;;;20.00;99.90;;;;;;5121405;28;20426;-75
2021/06/21 11:08:23;;;;;;;4.93;4.37;;;20.10;99.90;;;;;;5128650;28;20413;-74
2021/06/21 11:10:53;;;;;;;5.17;4.10;;;20.00;99.90;;;;;;5125602;28;20390;-75
2021/06/21 11:13:34;;;;;;;4.50;4.10;;;20.00;99.90;;;;;;5129108;28;20475;-75
2021/06/21 11:16:21;;;;;;;5.90;4.90;;;19.80;99.90;;;;;;5132714;28;20445;-74
2021/06/21 11:19:07;;;;;;;6.40;5.80;;;19.60;99.90;;;;;;5132534;28;20458;-75
2021/06/21 11:21:42;;;;;;;8.07;6.70;;;19.20;99.90;;;;;;5132425;28;20408;-74
2021/06/21 11:24:08;;;;;;;6.97;6.30;;;18.90;99.90;;;;;;5112502;28;20413;-74
2021/06/21 11:27:00;;;;;;;7.47;6.77;;;18.90;99.90;;;;;;5114360;28;20903;-74
2021/06/21 11:29:30;;;;;;;8.57;7.67;;;18.80;99.90;;;;;;5114018;28;20592;-74
2021/06/21 11:32:00;;;;;;;7.43;6.73;;;18.70;99.90;;;;;;5113099;28;20493;-74
2021/06/21 11:34:46;;;;;;;6.80;6.20;;;18.60;99.90;;;;;;5113435;28;20409;-74
2021/06/21 11:37:31;;;;;;;8.70;6.23;;;18.70;99.90;;;;;;5114880;28;20902;-74
2021/06/21 11:40:26;;;;;;;6.40;5.80;;;18.50;99.90;;;;;;5115076;28;20806;-74
2021/06/21 11:43:00;;;;;;;6.17;5.53;;;18.20;99.90;;;;;;5125234;28;20467;-74
2021/06/21 11:45:45;;;;;;;5.93;5.33;;;18.10;99.90;;;;;;5133923;28;20482;-73
2021/06/21 11:48:11;;;;;;;5.70;5.17;;;18.20;99.90;;;;;;5115138;28;20405;-73
2021/06/21 11:50:37;;;;;;;4.63;4.23;;;18.50;99.90;;;;;;5108546;28;20403;-74
2021/06/21 11:53:07;;;;;;;6.20;5.53;;;18.50;99.90;;;;;;5093376;28;20413;-74
2021/06/21 11:55:35;;;;;;;5.93;4.97;;;18.60;99.90;;;;;;5094967;28;20551;-74
2021/06/21 11:58:02;;;;;;;6.07;5.30;;;18.60;99.90;;;;;;5093796;28;20950;-74
2021/06/21 12:00:36;;;;;;;6.03;5.43;;;18.60;99.90;;;;;;5094975;28;20434;-73
2021/06/21 12:03:07;;;;;;;5.80;5.13;;;18.70;99.90;;;;;;5093799;28;20453;-73
2021/06/21 12:05:32;;;;;;;6.30;5.70;;;18.90;99.90;;;;;;5102998;28;20429;-73
2021/06/21 12:07:58;;;;;;;7.07;6.23;;;19.10;99.90;;;;;;5110327;28;20409;-73
2021/06/21 12:10:24;;;;;;;8.90;8.10;;;19.20;99.90;;;;;;5113025;28;20407;-74
2021/06/21 12:12:55;;;;;;;12.53;11.33;;;19.30;99.90;;;;;;5096911;28;20172;-74
2021/06/21 12:15:35;;;;;;;13.33;11.40;;;19.10;99.90;;;;;;5097198;28;20507;-74
2021/06/21 12:18:02;;;;;;;15.10;13.60;;;19.00;99.90;;;;;;5097708;28;20470;-74
2021/06/21 12:20:29;;;;;;;14.83;13.33;;;19.00;99.90;;;;;;5096952;28;20787;-74
2021/06/21 12:22:59;;;;;;;12.73;11.57;;;18.80;99.90;;;;;;5096253;28;20409;-75
2021/06/21 12:25:31;;;;;;;11.83;10.63;;;18.60;99.90;;;;;;5113825;28;20495;-74
2021/06/21 12:28:19;;;;;;;14.03;12.63;;;18.70;99.90;;;;;;5104443;28;20720;-74
2021/06/21 12:30:52;;;;;;;14.80;13.30;;;18.90;99.90;;;;;;5104149;28;20403;-74
2021/06/21 12:33:23;;;;;;;17.43;15.87;;;18.90;99.90;;;;;;5107318;28;20415;-74
2021/06/21 12:36:08;;;;;;;17.27;15.57;;;18.70;99.90;;;;;;5102432;28;20502;-74
2021/06/21 12:38:35;;;;;;;14.47;13.17;;;18.60;99.90;;;;;;5104230;28;20545;-74
2021/06/21 12:41:17;;;;;;;9.67;8.77;;;18.70;99.90;;;;;;5102595;28;20474;-74
2021/06/21 12:43:58;;;;;;;7.37;6.67;;;18.20;99.90;;;;;;5108956;28;20927;-74
2021/06/21 12:46:26;;;;;;;9.07;6.77;;;18.20;99.90;;;;;;5101882;28;20430;-74